createdAt,value
2023-03-31T00:02:13.805Z,2.57
2023-03-31T00:04:59.861Z,2.10
2023-03-31T00:07:46.136Z,2.13
2023-03-31T00:10:33.666Z,2.30
2023-03-31T00:13:18.601Z,2.13
2023-03-31T00:16:07.600Z,2.10
2023-03-31T00:18:53.060Z,2.03
2023-03-31T00:21:38.026Z,1.90
2023-03-31T00:24:22.916Z,2.47
2023-03-31T00:27:08.808Z,2.30
2023-03-31T00:29:54.555Z,2.20
2023-03-31T00:32:40.249Z,1.87
2023-03-31T00:35:25.677Z,1.93
2023-03-31T00:38:13.806Z,2.10
2023-03-31T00:41:00.532Z,1.93
2023-03-31T00:44:24.251Z,1.87
2023-03-31T00:47:19.980Z,1.73
2023-03-31T00:50:18.746Z,1.90
2023-03-31T00:53:10.977Z,1.90
2023-03-31T00:56:01.790Z,1.87
2023-03-31T00:58:49.793Z,1.97
2023-03-31T01:01:36.227Z,1.77
2023-03-31T01:04:24.114Z,1.63
2023-03-31T01:07:34.364Z,2.00
2023-03-31T01:10:20.317Z,1.73
2023-03-31T01:13:12.912Z,1.70
2023-03-31T01:15:58.175Z,1.80
2023-03-31T01:18:49.831Z,1.57
2023-03-31T01:22:07.565Z,1.30
2023-03-31T01:25:43.576Z,1.50
2023-03-31T01:28:52.395Z,1.80
2023-03-31T01:31:59.307Z,1.73
2023-03-31T01:35:09.494Z,1.40
2023-03-31T01:38:09.988Z,1.43
2023-03-31T01:41:29.231Z,1.67
2023-03-31T01:44:17.248Z,1.63
2023-03-31T01:47:11.705Z,1.43
2023-03-31T01:50:05.861Z,1.20
2023-03-31T01:53:09.344Z,1.50
2023-03-31T01:56:06.173Z,1.40
2023-03-31T01:59:06.453Z,1.40
2023-03-31T02:01:56.385Z,1.30
2023-03-31T02:04:47.411Z,1.60
2023-03-31T02:08:02.408Z,1.30
2023-03-31T02:10:48.424Z,1.43
2023-03-31T02:13:35.517Z,1.27
2023-03-31T02:16:26.631Z,1.57
2023-03-31T02:19:13.982Z,1.40
2023-03-31T02:21:59.619Z,1.30
2023-03-31T02:24:47.116Z,1.00
2023-03-31T02:27:37.781Z,1.60
2023-03-31T02:30:34.066Z,1.30
2023-03-31T02:33:19.393Z,1.10
2023-03-31T02:36:06.270Z,1.10
2023-03-31T02:38:57.327Z,1.30
2023-03-31T02:41:43.099Z,1.17
2023-03-31T02:44:28.273Z,1.10
2023-03-31T02:47:16.231Z,1.30
2023-03-31T02:50:05.684Z,1.10
2023-03-31T02:53:03.299Z,1.10
2023-03-31T02:56:05.328Z,1.20
2023-03-31T02:58:51.079Z,1.13
2023-03-31T03:01:45.387Z,1.20
2023-03-31T03:04:50.875Z,1.03
2023-03-31T03:07:41.937Z,1.10
2023-03-31T03:10:37.492Z,1.27
2023-03-31T03:13:47.515Z,1.20
2023-03-31T03:16:39.741Z,1.10
2023-03-31T03:19:25.817Z,1.10
2023-03-31T03:22:11.069Z,1.07
2023-03-31T03:24:56.222Z,1.20
2023-03-31T03:27:41.299Z,1.10
2023-03-31T03:30:26.495Z,1.00
2023-03-31T03:33:17.118Z,1.20
2023-03-31T03:36:02.761Z,1.03
2023-03-31T03:38:48.140Z,1.00
2023-03-31T03:41:34.045Z,1.27
2023-03-31T03:44:19.029Z,1.40
2023-03-31T03:47:04.161Z,1.20
2023-03-31T03:49:49.368Z,0.80
2023-03-31T03:52:34.830Z,1.30
2023-03-31T03:55:19.974Z,1.17
2023-03-31T03:58:05.224Z,1.13
2023-03-31T04:00:50.731Z,1.10
2023-03-31T04:03:36.072Z,0.93
2023-03-31T04:06:21.143Z,0.90
2023-03-31T04:09:06.242Z,0.70
2023-03-31T04:11:51.410Z,1.00
2023-03-31T04:14:36.560Z,1.20
2023-03-31T04:17:33.101Z,1.00
2023-03-31T04:20:18.830Z,0.93
2023-03-31T04:23:09.655Z,1.00
2023-03-31T04:25:55.161Z,1.20
2023-03-31T04:28:42.706Z,0.83
2023-03-31T04:31:30.723Z,1.00
2023-03-31T04:34:16.340Z,0.80
2023-03-31T04:37:02.858Z,1.00
2023-03-31T04:39:50.543Z,0.87
2023-03-31T04:42:36.082Z,0.90
2023-03-31T04:45:21.261Z,1.03
2023-03-31T04:48:06.527Z,0.70
2023-03-31T04:50:51.581Z,0.77
2023-03-31T04:53:36.652Z,0.93
2023-03-31T04:56:22.784Z,0.90
2023-03-31T04:59:08.554Z,0.70
2023-03-31T05:01:53.538Z,0.70
2023-03-31T05:04:38.849Z,1.33
2023-03-31T05:07:24.499Z,0.87
2023-03-31T05:10:10.239Z,0.97
2023-03-31T05:12:55.682Z,0.83
2023-03-31T05:15:41.437Z,0.80
2023-03-31T05:18:26.464Z,0.70
2023-03-31T05:21:19.643Z,1.03
2023-03-31T05:24:05.130Z,0.70
2023-03-31T05:26:52.830Z,0.70
2023-03-31T05:29:38.197Z,0.70
2023-03-31T05:32:23.736Z,0.90
2023-03-31T05:35:09.752Z,0.90
2023-03-31T05:37:55.264Z,0.83
2023-03-31T05:40:40.373Z,0.67
2023-03-31T05:43:25.903Z,0.80
2023-03-31T05:46:11.704Z,0.83
2023-03-31T05:48:58.678Z,0.90
2023-03-31T05:51:43.578Z,0.80
2023-03-31T05:54:28.463Z,0.80
2023-03-31T05:57:13.688Z,0.73
2023-03-31T05:59:59.073Z,0.90
2023-03-31T06:02:44.325Z,1.10
2023-03-31T06:05:31.168Z,1.10
2023-03-31T06:08:16.219Z,0.80
2023-03-31T06:11:05.540Z,1.00
2023-03-31T06:13:50.819Z,0.70
2023-03-31T06:16:35.958Z,0.90
2023-03-31T06:19:21.401Z,0.90
2023-03-31T06:22:06.514Z,0.97
2023-03-31T06:24:51.393Z,1.00
2023-03-31T06:27:36.253Z,0.97
2023-03-31T06:30:21.530Z,0.80
2023-03-31T06:33:07.201Z,0.80
2023-03-31T06:35:56.017Z,0.80
2023-03-31T06:38:41.517Z,0.90
2023-03-31T06:41:27.255Z,0.90
2023-03-31T06:44:12.423Z,0.73
2023-03-31T06:46:57.634Z,0.80
2023-03-31T06:49:42.574Z,0.90
2023-03-31T06:52:27.361Z,0.70
2023-03-31T06:55:13.495Z,0.53
2023-03-31T06:57:58.758Z,0.50
2023-03-31T07:00:46.021Z,1.03
2023-03-31T07:03:32.116Z,0.83
2023-03-31T07:06:17.614Z,0.93
2023-03-31T07:09:04.441Z,0.90
2023-03-31T07:11:49.855Z,0.87
2023-03-31T07:14:35.089Z,1.00
2023-03-31T07:17:20.431Z,1.00
2023-03-31T07:20:12.458Z,1.00
2023-03-31T07:22:57.449Z,0.80
2023-03-31T07:25:42.622Z,0.90
2023-03-31T07:28:27.417Z,0.80
2023-03-31T07:31:16.041Z,0.87
2023-03-31T07:34:02.649Z,0.67
2023-03-31T07:36:48.089Z,1.00
2023-03-31T07:39:36.462Z,0.97
2023-03-31T07:42:21.500Z,0.90
2023-03-31T07:45:07.858Z,0.90
2023-03-31T07:47:53.696Z,0.97
2023-03-31T07:50:38.987Z,1.10
2023-03-31T07:53:30.809Z,0.80
2023-03-31T07:56:17.276Z,0.90
2023-03-31T07:59:02.556Z,0.73
2023-03-31T08:01:47.729Z,0.90
2023-03-31T08:04:33.958Z,0.90
2023-03-31T08:07:19.544Z,0.87
2023-03-31T08:10:07.896Z,0.63
2023-03-31T08:12:53.530Z,0.97
2023-03-31T08:15:38.673Z,0.80
2023-03-31T08:18:23.828Z,0.80
2023-03-31T08:21:12.176Z,0.80
2023-03-31T08:23:58.060Z,0.80
2023-03-31T08:26:43.098Z,1.00
2023-03-31T08:29:28.206Z,0.70
2023-03-31T08:32:13.008Z,0.70
2023-03-31T08:34:58.939Z,0.90
2023-03-31T08:37:43.800Z,1.10
2023-03-31T08:40:30.322Z,0.90
2023-03-31T08:43:25.554Z,0.80
2023-03-31T08:46:13.857Z,0.80
2023-03-31T08:49:01.029Z,0.70
2023-03-31T08:51:59.278Z,0.80
2023-03-31T08:54:49.419Z,0.70
2023-03-31T08:57:48.968Z,0.90
2023-03-31T09:01:03.468Z,1.10
2023-03-31T09:04:01.129Z,1.33
2023-03-31T09:06:56.179Z,1.30
2023-03-31T09:10:02.793Z,0.83
2023-03-31T09:13:03.381Z,0.93
2023-03-31T09:16:06.192Z,0.83
2023-03-31T09:18:55.363Z,0.97
2023-03-31T09:21:43.437Z,1.07
2023-03-31T09:24:36.836Z,0.90
2023-03-31T09:27:27.190Z,0.93
2023-03-31T09:30:30.547Z,1.10
2023-03-31T09:33:20.018Z,0.97
2023-03-31T09:36:16.024Z,1.13
2023-03-31T09:39:01.656Z,1.10
2023-03-31T09:41:49.806Z,0.80
2023-03-31T09:44:39.412Z,1.00
2023-03-31T09:47:42.837Z,1.37
2023-03-31T09:50:30.076Z,1.23
2023-03-31T09:53:21.900Z,1.10
2023-03-31T09:56:11.259Z,0.87
2023-03-31T09:59:02.498Z,1.10
2023-03-31T10:01:51.028Z,1.20
2023-03-31T10:04:46.004Z,0.77
2023-03-31T10:07:31.464Z,1.17
2023-03-31T10:10:33.484Z,1.07
2023-03-31T10:13:35.284Z,1.20
2023-03-31T10:16:45.889Z,1.20
2023-03-31T10:19:37.696Z,1.10
2023-03-31T10:22:22.741Z,0.97
2023-03-31T10:25:15.982Z,1.10
2023-03-31T10:28:02.223Z,0.90
2023-03-31T10:30:50.694Z,1.33
2023-03-31T10:33:42.564Z,1.00
2023-03-31T10:36:29.897Z,1.17
2023-03-31T10:39:17.119Z,0.97
2023-03-31T10:42:02.214Z,0.90
2023-03-31T10:44:47.598Z,0.87
2023-03-31T10:47:33.341Z,1.33
2023-03-31T10:50:18.733Z,0.90
2023-03-31T10:53:13.429Z,0.80
2023-03-31T10:56:13.674Z,1.13
2023-03-31T10:59:13.972Z,0.97
2023-03-31T11:02:36.487Z,0.90
2023-03-31T11:05:32.290Z,1.20
2023-03-31T11:08:36.437Z,1.20
2023-03-31T11:11:24.974Z,1.10
2023-03-31T11:14:22.105Z,1.10
2023-03-31T11:17:44.707Z,1.30
2023-03-31T11:20:59.106Z,1.20
2023-03-31T11:24:05.054Z,1.40
2023-03-31T11:27:14.419Z,1.20
2023-03-31T11:30:07.258Z,1.23
2023-03-31T11:32:59.455Z,1.20
2023-03-31T11:36:11.661Z,1.00
2023-03-31T11:39:10.664Z,1.10
2023-03-31T11:42:01.485Z,1.20
2023-03-31T11:44:53.083Z,1.20
2023-03-31T11:47:42.151Z,1.40
2023-03-31T11:50:32.984Z,0.97
2023-03-31T11:53:24.671Z,1.00
2023-03-31T11:56:12.070Z,1.20
2023-03-31T11:59:00.631Z,1.00
2023-03-31T12:02:11.116Z,0.90
2023-03-31T12:04:57.564Z,1.50
2023-03-31T12:07:54.751Z,1.67
2023-03-31T12:10:46.549Z,1.23
2023-03-31T12:13:46.052Z,1.37
2023-03-31T12:16:45.998Z,1.47
2023-03-31T12:19:40.560Z,1.20
2023-03-31T12:22:36.332Z,1.57
2023-03-31T12:25:28.390Z,1.20
2023-03-31T12:28:14.170Z,1.37
2023-03-31T12:31:03.124Z,1.40
2023-03-31T12:34:05.080Z,1.23
2023-03-31T12:37:10.975Z,1.10
2023-03-31T12:40:34.714Z,1.40
2023-03-31T12:43:19.835Z,1.30
2023-03-31T12:46:39.060Z,1.20
2023-03-31T12:50:15.957Z,1.27
2023-03-31T12:53:19.340Z,1.20
2023-03-31T12:56:06.167Z,1.30
2023-03-31T12:58:51.425Z,1.23
2023-03-31T13:02:11.368Z,1.10
2023-03-31T13:04:56.497Z,1.50
2023-03-31T13:07:41.942Z,0.97
2023-03-31T13:10:29.275Z,1.03
2023-03-31T13:13:16.548Z,0.97
2023-03-31T13:16:02.674Z,1.27
2023-03-31T13:18:54.094Z,1.20
2023-03-31T13:22:32.278Z,1.17
2023-03-31T13:25:29.408Z,0.77
2023-03-31T13:28:16.618Z,1.10
2023-03-31T13:31:07.197Z,1.20
2023-03-31T13:33:58.026Z,1.10
2023-03-31T13:36:54.747Z,1.00
2023-03-31T13:40:04.305Z,1.07
2023-03-31T13:42:53.745Z,1.00
2023-03-31T13:45:54.225Z,1.00
2023-03-31T13:49:17.309Z,1.30
2023-03-31T13:52:05.338Z,1.47
2023-03-31T13:55:28.367Z,1.50
2023-03-31T13:58:32.850Z,1.50
2023-03-31T14:01:50.460Z,1.13
2023-03-31T14:04:51.197Z,1.47
2023-03-31T14:08:05.495Z,1.17
2023-03-31T14:10:50.790Z,1.07
2023-03-31T14:13:35.907Z,1.23
2023-03-31T14:16:21.442Z,1.43
2023-03-31T14:19:30.975Z,1.30
2023-03-31T14:22:35.312Z,1.20
2023-03-31T14:25:33.950Z,1.43
2023-03-31T14:28:48.558Z,1.23
2023-03-31T14:31:55.605Z,0.87
2023-03-31T14:35:39.342Z,1.00
2023-03-31T14:38:24.864Z,1.40
2023-03-31T14:41:29.396Z,0.90
2023-03-31T14:44:19.176Z,1.23
2023-03-31T14:47:06.162Z,1.20
2023-03-31T14:50:31.312Z,1.13
2023-03-31T14:53:20.907Z,1.20
2023-03-31T14:56:14.685Z,1.03
2023-03-31T14:59:01.908Z,1.17
2023-03-31T15:01:49.102Z,0.73
2023-03-31T15:04:44.941Z,1.00
2023-03-31T15:07:30.413Z,1.10
2023-03-31T15:10:22.260Z,0.90
2023-03-31T15:13:15.703Z,1.10
2023-03-31T15:16:18.831Z,0.97
2023-03-31T15:19:21.479Z,1.00
2023-03-31T15:22:14.211Z,1.13
2023-03-31T15:24:59.458Z,1.10
2023-03-31T15:27:50.714Z,0.90
2023-03-31T15:30:37.566Z,0.93
2023-03-31T15:33:31.608Z,0.97
2023-03-31T15:36:17.055Z,0.90
2023-03-31T15:39:02.208Z,1.20
2023-03-31T15:41:48.412Z,0.93
2023-03-31T15:44:44.842Z,0.90
2023-03-31T15:47:32.041Z,0.93
2023-03-31T15:50:17.963Z,0.77
2023-03-31T15:53:03.981Z,1.10
2023-03-31T15:55:55.465Z,0.90
2023-03-31T15:58:52.741Z,0.90
2023-03-31T16:01:46.372Z,1.10
2023-03-31T16:04:32.712Z,0.90
2023-03-31T16:07:27.180Z,0.90
2023-03-31T16:10:19.617Z,1.10
2023-03-31T16:13:09.078Z,0.97
2023-03-31T16:15:55.740Z,0.87
2023-03-31T16:18:47.016Z,1.00
2023-03-31T16:21:52.471Z,0.80
2023-03-31T16:24:37.509Z,1.10
2023-03-31T16:27:23.207Z,0.97
2023-03-31T16:30:13.158Z,0.70
2023-03-31T16:33:03.926Z,1.00
2023-03-31T16:35:55.754Z,0.97
2023-03-31T16:38:41.080Z,1.30
2023-03-31T16:41:28.828Z,1.00
2023-03-31T16:44:13.860Z,0.60
2023-03-31T16:46:58.859Z,1.07
2023-03-31T16:49:44.324Z,0.60
2023-03-31T16:52:29.457Z,0.90
2023-03-31T16:55:14.504Z,0.90
2023-03-31T16:58:02.877Z,0.83
2023-03-31T17:00:48.061Z,0.90
2023-03-31T17:03:34.158Z,0.70
2023-03-31T17:06:19.541Z,0.90
2023-03-31T17:09:04.565Z,0.83
2023-03-31T17:11:49.793Z,0.70
2023-03-31T17:14:35.169Z,0.83
2023-03-31T17:17:20.712Z,0.80
2023-03-31T17:20:06.886Z,1.13
2023-03-31T17:22:52.888Z,0.83
2023-03-31T17:25:38.296Z,0.77
2023-03-31T17:28:23.570Z,0.80
2023-03-31T17:31:18.540Z,0.87
2023-03-31T17:34:04.182Z,0.63
2023-03-31T17:36:50.656Z,0.67
2023-03-31T17:39:35.889Z,1.07
2023-03-31T17:42:21.583Z,0.90
2023-03-31T17:45:08.687Z,0.87
2023-03-31T17:47:55.513Z,0.70
2023-03-31T17:50:41.616Z,0.87
2023-03-31T17:53:27.306Z,0.63
2023-03-31T17:56:13.779Z,0.70
2023-03-31T17:58:58.710Z,1.07
2023-03-31T18:01:44.420Z,1.00
2023-03-31T18:04:29.960Z,1.00
2023-03-31T18:07:17.779Z,0.70
2023-03-31T18:10:05.240Z,0.70
2023-03-31T18:12:50.510Z,0.70
2023-03-31T18:15:35.926Z,0.93
2023-03-31T18:18:23.127Z,0.70
2023-03-31T18:21:13.670Z,0.77
2023-03-31T18:23:58.972Z,0.77
2023-03-31T18:26:44.026Z,0.90
2023-03-31T18:29:29.468Z,0.60
2023-03-31T18:32:14.649Z,0.73
2023-03-31T18:35:00.098Z,1.00
2023-03-31T18:37:46.005Z,1.00
2023-03-31T18:40:30.956Z,0.80
2023-03-31T18:43:18.289Z,0.80
2023-03-31T18:46:03.561Z,0.70
2023-03-31T18:48:48.723Z,0.67
2023-03-31T18:51:33.928Z,0.70
2023-03-31T18:54:18.644Z,0.63
2023-03-31T18:57:03.812Z,0.90
2023-03-31T18:59:49.030Z,0.63
2023-03-31T19:02:34.292Z,0.67
2023-03-31T19:05:19.647Z,0.80
2023-03-31T19:08:05.588Z,0.90
2023-03-31T19:10:50.936Z,0.53
2023-03-31T19:13:36.164Z,1.30
2023-03-31T19:16:21.499Z,0.83
2023-03-31T19:19:07.543Z,0.80
2023-03-31T19:21:52.911Z,0.90
2023-03-31T19:24:38.090Z,0.73
2023-03-31T19:27:23.735Z,0.87
2023-03-31T19:30:18.115Z,0.60
2023-03-31T19:33:03.574Z,0.67
2023-03-31T19:35:50.878Z,0.70
2023-03-31T19:38:36.740Z,0.73
2023-03-31T19:41:21.937Z,0.80
2023-03-31T19:44:06.766Z,0.70
2023-03-31T19:46:51.742Z,0.80
2023-03-31T19:49:36.810Z,0.77
2023-03-31T19:52:21.959Z,0.73
2023-03-31T19:55:07.159Z,0.63
2023-03-31T19:57:52.416Z,0.60
2023-03-31T20:00:38.085Z,0.60
2023-03-31T20:03:24.624Z,0.87
2023-03-31T20:06:14.247Z,0.73
2023-03-31T20:09:01.920Z,0.90
2023-03-31T20:11:48.185Z,0.90
2023-03-31T20:14:33.210Z,0.70
2023-03-31T20:17:19.347Z,0.70
2023-03-31T20:20:04.698Z,0.80
2023-03-31T20:22:49.686Z,0.80
2023-03-31T20:25:37.536Z,0.90
2023-03-31T20:28:22.647Z,0.70
2023-03-31T20:31:09.164Z,0.50
2023-03-31T20:33:55.074Z,0.90
2023-03-31T20:36:41.810Z,0.70
2023-03-31T20:39:27.129Z,0.60
2023-03-31T20:42:12.949Z,0.60
2023-03-31T20:44:58.170Z,0.80
2023-03-31T20:47:43.570Z,0.80
2023-03-31T20:50:28.676Z,0.60
2023-03-31T20:53:14.146Z,0.97
2023-03-31T20:55:59.321Z,0.40
2023-03-31T20:58:44.835Z,0.70
2023-03-31T21:01:32.842Z,0.83
2023-03-31T21:04:18.330Z,0.80
2023-03-31T21:07:03.648Z,0.50
2023-03-31T21:09:48.768Z,0.77
2023-03-31T21:12:33.760Z,0.70
2023-03-31T21:15:19.244Z,0.70
2023-03-31T21:18:05.569Z,0.60
2023-03-31T21:20:52.382Z,0.80
2023-03-31T21:23:37.642Z,0.63
2023-03-31T21:26:23.218Z,0.73
2023-03-31T21:29:08.321Z,0.70
2023-03-31T21:31:53.458Z,0.70
2023-03-31T21:34:39.100Z,0.60
2023-03-31T21:37:24.680Z,0.80
2023-03-31T21:40:10.695Z,0.63
2023-03-31T21:42:55.886Z,0.70
2023-03-31T21:45:41.247Z,0.63
2023-03-31T21:48:26.737Z,0.90
2023-03-31T21:51:12.007Z,0.53
2023-03-31T21:53:57.010Z,0.80
2023-03-31T21:56:42.196Z,0.70
2023-03-31T21:59:27.068Z,0.70
2023-03-31T22:02:12.123Z,0.50
2023-03-31T22:04:57.715Z,0.60
2023-03-31T22:07:43.136Z,0.60
2023-03-31T22:10:28.386Z,0.60
2023-03-31T22:13:13.486Z,0.53
2023-03-31T22:16:00.188Z,0.80
2023-03-31T22:18:47.157Z,0.70
2023-03-31T22:21:32.346Z,0.40
2023-03-31T22:24:17.373Z,0.93
2023-03-31T22:27:03.009Z,0.83
2023-03-31T22:29:47.941Z,0.83
2023-03-31T22:32:32.989Z,0.60
2023-03-31T22:35:18.366Z,0.63
2023-03-31T22:38:04.465Z,0.70
2023-03-31T22:40:50.897Z,0.70
2023-03-31T22:43:36.143Z,0.80
2023-03-31T22:46:21.114Z,0.70
2023-03-31T22:49:06.376Z,0.60
2023-03-31T22:51:53.953Z,0.60
2023-03-31T22:54:40.833Z,0.70
2023-03-31T22:57:26.398Z,0.73
2023-03-31T23:00:12.705Z,0.50
2023-03-31T23:02:58.078Z,0.70
2023-03-31T23:05:43.448Z,0.60
2023-03-31T23:08:28.481Z,0.50
2023-03-31T23:11:14.707Z,0.70
2023-03-31T23:13:59.796Z,0.80
2023-03-31T23:16:44.959Z,0.50
2023-03-31T23:19:30.065Z,0.70
2023-03-31T23:22:15.247Z,0.67
2023-03-31T23:25:01.600Z,0.60
2023-03-31T23:27:47.684Z,0.80
2023-03-31T23:30:32.667Z,0.50
2023-03-31T23:33:17.798Z,0.60
2023-03-31T23:36:05.163Z,0.80
2023-03-31T23:38:53.358Z,0.70
2023-03-31T23:41:38.416Z,0.50
2023-03-31T23:44:23.697Z,0.50
2023-03-31T23:47:08.945Z,0.80
2023-03-31T23:49:56.366Z,0.50
2023-03-31T23:52:41.562Z,0.50
2023-03-31T23:55:27.747Z,0.40
2023-03-31T23:58:12.845Z,0.80
